sensor_id;sensor_type;location;lat;lon;timestamp;P1;durP1;ratioP1;P2;durP2;ratioP2
58472;SDS011;44775;51.564;5.460;2024-02-26T00:01:12;6.55;;;4.70;;
58472;SDS011;44775;51.564;5.460;2024-02-26T00:03:37;7.47;;;4.55;;
58472;SDS011;44775;51.564;5.460;2024-02-26T00:06:03;5.50;;;3.92;;
58472;SDS011;44775;51.564;5.460;2024-02-26T00:08:29;7.18;;;4.57;;
58472;SDS011;44775;51.564;5.460;2024-02-26T00:10:54;5.13;;;4.57;;
58472;SDS011;44775;51.564;5.460;2024-02-26T00:13:19;7.30;;;4.30;;
58472;SDS011;44775;51.564;5.460;2024-02-26T00:15:45;7.20;;;4.75;;
58472;SDS011;44775;51.564;5.460;2024-02-26T00:18:11;8.48;;;5.05;;
58472;SDS011;44775;51.564;5.460;2024-02-26T00:20:36;7.05;;;4.90;;
58472;SDS011;44775;51.564;5.460;2024-02-26T00:23:01;7.53;;;4.70;;
58472;SDS011;44775;51.564;5.460;2024-02-26T00:25:26;5.38;;;4.32;;
58472;SDS011;44775;51.564;5.460;2024-02-26T00:27:52;7.32;;;4.90;;
58472;SDS011;44775;51.564;5.460;2024-02-26T00:30:17;7.32;;;5.03;;
58472;SDS011;44775;51.564;5.460;2024-02-26T00:32:42;5.70;;;4.80;;
58472;SDS011;44775;51.564;5.460;2024-02-26T00:35:08;5.03;;;4.22;;
58472;SDS011;44775;51.564;5.460;2024-02-26T00:37:34;7.03;;;4.60;;
58472;SDS011;44775;51.564;5.460;2024-02-26T00:40:00;6.35;;;4.47;;
58472;SDS011;44775;51.564;5.460;2024-02-26T00:42:25;7.20;;;5.03;;
58472;SDS011;44775;51.564;5.460;2024-02-26T00:44:51;5.43;;;4.47;;
58472;SDS011;44775;51.564;5.460;2024-02-26T00:47:16;6.47;;;4.70;;
58472;SDS011;44775;51.564;5.460;2024-02-26T00:49:41;5.75;;;4.38;;
58472;SDS011;44775;51.564;5.460;2024-02-26T00:52:06;5.03;;;4.50;;
58472;SDS011;44775;51.564;5.460;2024-02-26T00:54:32;6.93;;;4.65;;
58472;SDS011;44775;51.564;5.460;2024-02-26T00:56:57;5.18;;;4.18;;
58472;SDS011;44775;51.564;5.460;2024-02-26T00:59:22;6.45;;;4.43;;
58472;SDS011;44775;51.564;5.460;2024-02-26T01:01:48;6.13;;;4.55;;
58472;SDS011;44775;51.564;5.460;2024-02-26T01:04:13;5.35;;;4.57;;
58472;SDS011;44775;51.564;5.460;2024-02-26T01:06:38;7.20;;;4.65;;
58472;SDS011;44775;51.564;5.460;2024-02-26T01:09:04;5.88;;;4.55;;
58472;SDS011;44775;51.564;5.460;2024-02-26T01:11:29;6.13;;;4.90;;
58472;SDS011;44775;51.564;5.460;2024-02-26T01:13:54;6.07;;;4.38;;
58472;SDS011;44775;51.564;5.460;2024-02-26T01:16:21;5.05;;;4.28;;
58472;SDS011;44775;51.564;5.460;2024-02-26T01:18:47;6.60;;;5.10;;
58472;SDS011;44775;51.564;5.460;2024-02-26T01:21:13;5.50;;;4.10;;
58472;SDS011;44775;51.564;5.460;2024-02-26T01:23:38;5.68;;;4.38;;
58472;SDS011;44775;51.564;5.460;2024-02-26T01:26:03;5.43;;;4.57;;
58472;SDS011;44775;51.564;5.460;2024-02-26T01:28:29;6.18;;;4.20;;
58472;SDS011;44775;51.564;5.460;2024-02-26T01:30:55;6.78;;;5.03;;
58472;SDS011;44775;51.564;5.460;2024-02-26T01:33:20;6.72;;;4.93;;
58472;SDS011;44775;51.564;5.460;2024-02-26T01:35:45;7.80;;;4.85;;
58472;SDS011;44775;51.564;5.460;2024-02-26T01:38:11;4.93;;;4.28;;
58472;SDS011;44775;51.564;5.460;2024-02-26T01:40:37;5.03;;;4.50;;
58472;SDS011;44775;51.564;5.460;2024-02-26T01:43:02;4.75;;;4.18;;
58472;SDS011;44775;51.564;5.460;2024-02-26T01:45:27;6.30;;;4.57;;
58472;SDS011;44775;51.564;5.460;2024-02-26T01:47:53;4.45;;;4.05;;
58472;SDS011;44775;51.564;5.460;2024-02-26T01:50:20;5.07;;;4.10;;
58472;SDS011;44775;51.564;5.460;2024-02-26T01:52:47;7.72;;;4.80;;
58472;SDS011;44775;51.564;5.460;2024-02-26T01:55:14;6.80;;;4.55;;
58472;SDS011;44775;51.564;5.460;2024-02-26T01:57:40;5.72;;;4.45;;
58472;SDS011;44775;51.564;5.460;2024-02-26T02:00:07;4.57;;;4.00;;
58472;SDS011;44775;51.564;5.460;2024-02-26T02:02:33;4.93;;;4.40;;
58472;SDS011;44775;51.564;5.460;2024-02-26T02:04:59;6.28;;;4.93;;
58472;SDS011;44775;51.564;5.460;2024-02-26T02:07:25;5.03;;;4.45;;
58472;SDS011;44775;51.564;5.460;2024-02-26T02:09:51;6.18;;;4.40;;
58472;SDS011;44775;51.564;5.460;2024-02-26T02:12:16;5.35;;;4.60;;
58472;SDS011;44775;51.564;5.460;2024-02-26T02:14:42;5.13;;;4.35;;
58472;SDS011;44775;51.564;5.460;2024-02-26T02:17:07;6.28;;;4.88;;
58472;SDS011;44775;51.564;5.460;2024-02-26T02:19:33;7.90;;;5.20;;
58472;SDS011;44775;51.564;5.460;2024-02-26T02:21:58;5.00;;;4.50;;
58472;SDS011;44775;51.564;5.460;2024-02-26T02:24:23;7.97;;;4.93;;
58472;SDS011;44775;51.564;5.460;2024-02-26T02:26:49;4.90;;;3.63;;
58472;SDS011;44775;51.564;5.460;2024-02-26T02:29:14;4.05;;;3.65;;
58472;SDS011;44775;51.564;5.460;2024-02-26T02:31:40;6.65;;;4.70;;
58472;SDS011;44775;51.564;5.460;2024-02-26T02:34:06;5.72;;;4.82;;
58472;SDS011;44775;51.564;5.460;2024-02-26T02:36:32;5.43;;;4.15;;
58472;SDS011;44775;51.564;5.460;2024-02-26T02:38:58;6.25;;;4.70;;
58472;SDS011;44775;51.564;5.460;2024-02-26T02:41:23;6.38;;;5.18;;
58472;SDS011;44775;51.564;5.460;2024-02-26T02:43:48;5.70;;;4.53;;
58472;SDS011;44775;51.564;5.460;2024-02-26T02:46:14;5.45;;;4.18;;
58472;SDS011;44775;51.564;5.460;2024-02-26T02:48:39;5.30;;;4.80;;
58472;SDS011;44775;51.564;5.460;2024-02-26T02:51:06;9.13;;;5.28;;
58472;SDS011;44775;51.564;5.460;2024-02-26T02:53:31;7.45;;;5.60;;
58472;SDS011;44775;51.564;5.460;2024-02-26T02:55:57;6.32;;;5.18;;
58472;SDS011;44775;51.564;5.460;2024-02-26T02:58:22;7.72;;;5.80;;
58472;SDS011;44775;51.564;5.460;2024-02-26T03:00:47;6.40;;;4.90;;
58472;SDS011;44775;51.564;5.460;2024-02-26T03:03:13;6.57;;;5.38;;
58472;SDS011;44775;51.564;5.460;2024-02-26T03:05:38;5.95;;;4.88;;
58472;SDS011;44775;51.564;5.460;2024-02-26T03:08:03;6.78;;;4.50;;
58472;SDS011;44775;51.564;5.460;2024-02-26T03:10:29;5.13;;;4.30;;
58472;SDS011;44775;51.564;5.460;2024-02-26T03:12:54;6.28;;;5.30;;
58472;SDS011;44775;51.564;5.460;2024-02-26T03:15:21;6.38;;;4.78;;
58472;SDS011;44775;51.564;5.460;2024-02-26T03:17:46;6.45;;;4.68;;
58472;SDS011;44775;51.564;5.460;2024-02-26T03:20:11;5.55;;;4.68;;
58472;SDS011;44775;51.564;5.460;2024-02-26T03:22:38;5.43;;;4.55;;
58472;SDS011;44775;51.564;5.460;2024-02-26T03:25:05;5.53;;;4.60;;
58472;SDS011;44775;51.564;5.460;2024-02-26T03:27:31;5.85;;;4.50;;
58472;SDS011;44775;51.564;5.460;2024-02-26T03:29:56;5.88;;;4.65;;
58472;SDS011;44775;51.564;5.460;2024-02-26T03:32:22;5.63;;;4.90;;
58472;SDS011;44775;51.564;5.460;2024-02-26T03:34:47;7.18;;;3.92;;
58472;SDS011;44775;51.564;5.460;2024-02-26T03:37:12;7.55;;;4.90;;
58472;SDS011;44775;51.564;5.460;2024-02-26T03:39:37;5.90;;;4.78;;
58472;SDS011;44775;51.564;5.460;2024-02-26T03:42:03;5.45;;;4.47;;
58472;SDS011;44775;51.564;5.460;2024-02-26T03:44:29;7.72;;;5.13;;
58472;SDS011;44775;51.564;5.460;2024-02-26T03:46:54;6.10;;;4.38;;
58472;SDS011;44775;51.564;5.460;2024-02-26T03:49:20;6.10;;;4.53;;
58472;SDS011;44775;51.564;5.460;2024-02-26T03:51:46;6.15;;;5.07;;
58472;SDS011;44775;51.564;5.460;2024-02-26T03:54:12;7.65;;;5.43;;
58472;SDS011;44775;51.564;5.460;2024-02-26T03:56:37;5.43;;;4.63;;
58472;SDS011;44775;51.564;5.460;2024-02-26T03:59:02;6.80;;;5.55;;
58472;SDS011;44775;51.564;5.460;2024-02-26T04:01:28;5.45;;;4.85;;
58472;SDS011;44775;51.564;5.460;2024-02-26T04:03:53;4.55;;;3.80;;
58472;SDS011;44775;51.564;5.460;2024-02-26T04:06:19;5.63;;;4.85;;
58472;SDS011;44775;51.564;5.460;2024-02-26T04:08:46;7.40;;;4.82;;
58472;SDS011;44775;51.564;5.460;2024-02-26T04:11:11;6.45;;;4.45;;
58472;SDS011;44775;51.564;5.460;2024-02-26T04:13:37;5.63;;;4.53;;
58472;SDS011;44775;51.564;5.460;2024-02-26T04:16:03;6.15;;;4.70;;
58472;SDS011;44775;51.564;5.460;2024-02-26T04:18:29;5.70;;;3.88;;
58472;SDS011;44775;51.564;5.460;2024-02-26T04:20:55;5.90;;;4.50;;
58472;SDS011;44775;51.564;5.460;2024-02-26T04:23:20;6.22;;;5.00;;
58472;SDS011;44775;51.564;5.460;2024-02-26T04:25:45;5.47;;;4.40;;
58472;SDS011;44775;51.564;5.460;2024-02-26T04:28:11;6.60;;;4.43;;
58472;SDS011;44775;51.564;5.460;2024-02-26T04:30:37;6.68;;;4.70;;
58472;SDS011;44775;51.564;5.460;2024-02-26T04:33:03;4.10;;;3.70;;
58472;SDS011;44775;51.564;5.460;2024-02-26T04:35:28;7.93;;;5.80;;
58472;SDS011;44775;51.564;5.460;2024-02-26T04:37:53;7.05;;;5.63;;
58472;SDS011;44775;51.564;5.460;2024-02-26T04:40:19;4.45;;;4.03;;
58472;SDS011;44775;51.564;5.460;2024-02-26T04:42:44;5.60;;;4.85;;
58472;SDS011;44775;51.564;5.460;2024-02-26T04:45:09;4.65;;;4.03;;
58472;SDS011;44775;51.564;5.460;2024-02-26T04:47:34;5.50;;;5.00;;
58472;SDS011;44775;51.564;5.460;2024-02-26T04:50:00;5.03;;;4.18;;
58472;SDS011;44775;51.564;5.460;2024-02-26T04:52:25;6.60;;;5.90;;
58472;SDS011;44775;51.564;5.460;2024-02-26T04:54:50;5.38;;;4.55;;
58472;SDS011;44775;51.564;5.460;2024-02-26T04:57:16;4.95;;;4.45;;
58472;SDS011;44775;51.564;5.460;2024-02-26T04:59:43;8.32;;;6.25;;
58472;SDS011;44775;51.564;5.460;2024-02-26T05:02:10;7.43;;;5.72;;
58472;SDS011;44775;51.564;5.460;2024-02-26T05:04:35;7.30;;;4.88;;
58472;SDS011;44775;51.564;5.460;2024-02-26T05:07:00;6.65;;;5.22;;
58472;SDS011;44775;51.564;5.460;2024-02-26T05:09:26;6.68;;;5.65;;
58472;SDS011;44775;51.564;5.460;2024-02-26T05:11:51;4.90;;;4.13;;
58472;SDS011;44775;51.564;5.460;2024-02-26T05:14:16;4.93;;;4.40;;
58472;SDS011;44775;51.564;5.460;2024-02-26T05:16:41;4.15;;;3.30;;
58472;SDS011;44775;51.564;5.460;2024-02-26T05:19:07;5.38;;;4.15;;
58472;SDS011;44775;51.564;5.460;2024-02-26T05:21:32;4.93;;;3.83;;
58472;SDS011;44775;51.564;5.460;2024-02-26T05:23:58;5.28;;;4.35;;
58472;SDS011;44775;51.564;5.460;2024-02-26T05:26:24;6.43;;;4.60;;
58472;SDS011;44775;51.564;5.460;2024-02-26T05:28:49;5.20;;;4.53;;
58472;SDS011;44775;51.564;5.460;2024-02-26T05:31:15;4.63;;;4.13;;
58472;SDS011;44775;51.564;5.460;2024-02-26T05:33:40;5.05;;;4.20;;
58472;SDS011;44775;51.564;5.460;2024-02-26T05:36:06;6.82;;;5.18;;
58472;SDS011;44775;51.564;5.460;2024-02-26T05:38:31;6.03;;;4.70;;
58472;SDS011;44775;51.564;5.460;2024-02-26T05:41:00;7.13;;;4.72;;
58472;SDS011;44775;51.564;5.460;2024-02-26T05:43:25;4.43;;;4.03;;
58472;SDS011;44775;51.564;5.460;2024-02-26T05:45:51;5.65;;;4.50;;
58472;SDS011;44775;51.564;5.460;2024-02-26T05:48:17;4.93;;;4.43;;
58472;SDS011;44775;51.564;5.460;2024-02-26T05:50:44;4.57;;;4.15;;
58472;SDS011;44775;51.564;5.460;2024-02-26T05:53:09;6.30;;;4.90;;
58472;SDS011;44775;51.564;5.460;2024-02-26T05:55:34;5.45;;;4.70;;
58472;SDS011;44775;51.564;5.460;2024-02-26T05:58:00;5.57;;;4.80;;
58472;SDS011;44775;51.564;5.460;2024-02-26T06:00:25;5.28;;;4.57;;
58472;SDS011;44775;51.564;5.460;2024-02-26T06:02:50;5.32;;;4.43;;
58472;SDS011;44775;51.564;5.460;2024-02-26T06:05:15;4.18;;;3.78;;
58472;SDS011;44775;51.564;5.460;2024-02-26T06:07:41;4.90;;;4.00;;
58472;SDS011;44775;51.564;5.460;2024-02-26T06:10:06;6.63;;;4.50;;
58472;SDS011;44775;51.564;5.460;2024-02-26T06:12:34;4.30;;;3.75;;
58472;SDS011;44775;51.564;5.460;2024-02-26T06:15:00;4.75;;;3.72;;
58472;SDS011;44775;51.564;5.460;2024-02-26T06:17:26;4.53;;;4.13;;
58472;SDS011;44775;51.564;5.460;2024-02-26T06:19:51;5.80;;;4.82;;
58472;SDS011;44775;51.564;5.460;2024-02-26T06:22:17;4.13;;;3.55;;
58472;SDS011;44775;51.564;5.460;2024-02-26T06:24:42;6.55;;;5.07;;
58472;SDS011;44775;51.564;5.460;2024-02-26T06:27:07;5.82;;;5.10;;
58472;SDS011;44775;51.564;5.460;2024-02-26T06:29:33;6.10;;;4.57;;
58472;SDS011;44775;51.564;5.460;2024-02-26T06:31:58;6.45;;;5.75;;
58472;SDS011;44775;51.564;5.460;2024-02-26T06:34:24;5.28;;;4.60;;
58472;SDS011;44775;51.564;5.460;2024-02-26T06:36:49;6.50;;;5.30;;
58472;SDS011;44775;51.564;5.460;2024-02-26T06:39:14;5.57;;;5.05;;
58472;SDS011;44775;51.564;5.460;2024-02-26T06:41:41;8.55;;;6.68;;
58472;SDS011;44775;51.564;5.460;2024-02-26T06:44:06;7.22;;;5.60;;
58472;SDS011;44775;51.564;5.460;2024-02-26T06:46:31;6.10;;;4.60;;
58472;SDS011;44775;51.564;5.460;2024-02-26T06:48:57;6.47;;;5.80;;
58472;SDS011;44775;51.564;5.460;2024-02-26T06:51:22;8.18;;;6.38;;
58472;SDS011;44775;51.564;5.460;2024-02-26T06:53:48;6.38;;;5.78;;
58472;SDS011;44775;51.564;5.460;2024-02-26T06:56:14;9.05;;;7.65;;
58472;SDS011;44775;51.564;5.460;2024-02-26T06:58:39;8.40;;;6.68;;
58472;SDS011;44775;51.564;5.460;2024-02-26T07:01:04;12.02;;;7.97;;
58472;SDS011;44775;51.564;5.460;2024-02-26T07:03:30;5.40;;;4.47;;
58472;SDS011;44775;51.564;5.460;2024-02-26T07:05:55;6.97;;;5.40;;
58472;SDS011;44775;51.564;5.460;2024-02-26T07:08:20;8.27;;;6.18;;
58472;SDS011;44775;51.564;5.460;2024-02-26T07:10:46;4.60;;;4.13;;
58472;SDS011;44775;51.564;5.460;2024-02-26T07:13:14;6.88;;;6.18;;
58472;SDS011;44775;51.564;5.460;2024-02-26T07:15:39;7.97;;;6.03;;
58472;SDS011;44775;51.564;5.460;2024-02-26T07:18:04;5.75;;;5.22;;
58472;SDS011;44775;51.564;5.460;2024-02-26T07:20:30;8.45;;;6.25;;
58472;SDS011;44775;51.564;5.460;2024-02-26T07:22:55;7.60;;;6.35;;
58472;SDS011;44775;51.564;5.460;2024-02-26T07:25:21;5.32;;;4.47;;
58472;SDS011;44775;51.564;5.460;2024-02-26T07:27:47;5.10;;;4.60;;
58472;SDS011;44775;51.564;5.460;2024-02-26T07:30:12;7.03;;;6.20;;
58472;SDS011;44775;51.564;5.460;2024-02-26T07:32:37;6.85;;;5.13;;
58472;SDS011;44775;51.564;5.460;2024-02-26T07:35:03;7.35;;;6.22;;
58472;SDS011;44775;51.564;5.460;2024-02-26T07:37:29;7.45;;;6.18;;
58472;SDS011;44775;51.564;5.460;2024-02-26T07:39:54;7.50;;;6.18;;
58472;SDS011;44775;51.564;5.460;2024-02-26T07:42:20;5.85;;;5.13;;
58472;SDS011;44775;51.564;5.460;2024-02-26T07:44:45;8.15;;;6.63;;
58472;SDS011;44775;51.564;5.460;2024-02-26T07:47:10;4.57;;;4.07;;
58472;SDS011;44775;51.564;5.460;2024-02-26T07:49:35;3.85;;;3.45;;
58472;SDS011;44775;51.564;5.460;2024-02-26T07:52:01;9.35;;;6.20;;
58472;SDS011;44775;51.564;5.460;2024-02-26T07:54:26;7.10;;;6.35;;
58472;SDS011;44775;51.564;5.460;2024-02-26T07:56:51;6.43;;;5.60;;
58472;SDS011;44775;51.564;5.460;2024-02-26T07:59:17;7.80;;;6.57;;
58472;SDS011;44775;51.564;5.460;2024-02-26T08:01:42;2.75;;;2.55;;
58472;SDS011;44775;51.564;5.460;2024-02-26T08:04:08;2.88;;;2.53;;
58472;SDS011;44775;51.564;5.460;2024-02-26T08:06:33;3.13;;;2.30;;
58472;SDS011;44775;51.564;5.460;2024-02-26T08:08:59;5.57;;;4.97;;
58472;SDS011;44775;51.564;5.460;2024-02-26T08:11:24;5.97;;;4.70;;
58472;SDS011;44775;51.564;5.460;2024-02-26T08:13:49;4.97;;;4.47;;
58472;SDS011;44775;51.564;5.460;2024-02-26T08:16:14;8.02;;;5.30;;
58472;SDS011;44775;51.564;5.460;2024-02-26T08:18:40;3.78;;;3.40;;
58472;SDS011;44775;51.564;5.460;2024-02-26T08:21:05;4.32;;;3.20;;
58472;SDS011;44775;51.564;5.460;2024-02-26T08:23:30;5.32;;;2.33;;
58472;SDS011;44775;51.564;5.460;2024-02-26T08:25:56;6.82;;;6.00;;
58472;SDS011;44775;51.564;5.460;2024-02-26T08:28:21;5.15;;;4.18;;
58472;SDS011;44775;51.564;5.460;2024-02-26T08:30:47;5.80;;;4.32;;
58472;SDS011;44775;51.564;5.460;2024-02-26T08:33:12;5.90;;;5.25;;
58472;SDS011;44775;51.564;5.460;2024-02-26T08:35:38;5.60;;;4.60;;
58472;SDS011;44775;51.564;5.460;2024-02-26T08:38:04;8.48;;;6.63;;
58472;SDS011;44775;51.564;5.460;2024-02-26T08:40:29;6.43;;;5.38;;
58472;SDS011;44775;51.564;5.460;2024-02-26T08:42:55;6.88;;;5.75;;
58472;SDS011;44775;51.564;5.460;2024-02-26T08:45:20;9.30;;;7.25;;
58472;SDS011;44775;51.564;5.460;2024-02-26T08:47:46;6.65;;;5.25;;
58472;SDS011;44775;51.564;5.460;2024-02-26T08:50:11;4.53;;;4.00;;
58472;SDS011;44775;51.564;5.460;2024-02-26T08:52:37;8.35;;;5.75;;
58472;SDS011;44775;51.564;5.460;2024-02-26T08:55:03;7.50;;;6.28;;
58472;SDS011;44775;51.564;5.460;2024-02-26T08:57:29;6.40;;;5.25;;
58472;SDS011;44775;51.564;5.460;2024-02-26T08:59:56;7.38;;;6.03;;
58472;SDS011;44775;51.564;5.460;2024-02-26T09:02:22;6.70;;;5.43;;
58472;SDS011;44775;51.564;5.460;2024-02-26T09:04:47;5.70;;;3.80;;
58472;SDS011;44775;51.564;5.460;2024-02-26T09:07:12;6.93;;;5.93;;
58472;SDS011;44775;51.564;5.460;2024-02-26T09:09:38;7.18;;;5.65;;
58472;SDS011;44775;51.564;5.460;2024-02-26T09:12:03;7.43;;;5.90;;
58472;SDS011;44775;51.564;5.460;2024-02-26T09:14:29;7.75;;;6.03;;
58472;SDS011;44775;51.564;5.460;2024-02-26T09:16:54;9.70;;;7.72;;
58472;SDS011;44775;51.564;5.460;2024-02-26T09:19:19;8.27;;;7.38;;
58472;SDS011;44775;51.564;5.460;2024-02-26T09:21:44;5.28;;;4.78;;
58472;SDS011;44775;51.564;5.460;2024-02-26T09:24:11;8.98;;;7.35;;
58472;SDS011;44775;51.564;5.460;2024-02-26T09:26:36;6.55;;;5.80;;
58472;SDS011;44775;51.564;5.460;2024-02-26T09:29:02;7.25;;;5.55;;
58472;SDS011;44775;51.564;5.460;2024-02-26T09:31:29;9.73;;;8.20;;
58472;SDS011;44775;51.564;5.460;2024-02-26T09:33:54;7.90;;;6.05;;
58472;SDS011;44775;51.564;5.460;2024-02-26T09:36:20;6.30;;;5.63;;
58472;SDS011;44775;51.564;5.460;2024-02-26T09:38:46;8.00;;;6.80;;
58472;SDS011;44775;51.564;5.460;2024-02-26T09:41:14;8.90;;;5.75;;
58472;SDS011;44775;51.564;5.460;2024-02-26T09:43:40;10.18;;;8.65;;
58472;SDS011;44775;51.564;5.460;2024-02-26T09:46:11;12.63;;;8.15;;
58472;SDS011;44775;51.564;5.460;2024-02-26T09:48:37;7.05;;;5.63;;
58472;SDS011;44775;51.564;5.460;2024-02-26T09:51:03;8.30;;;7.20;;
58472;SDS011;44775;51.564;5.460;2024-02-26T09:53:29;10.88;;;8.48;;
58472;SDS011;44775;51.564;5.460;2024-02-26T09:55:57;11.10;;;7.40;;
58472;SDS011;44775;51.564;5.460;2024-02-26T09:58:22;9.07;;;6.28;;
58472;SDS011;44775;51.564;5.460;2024-02-26T10:00:51;11.70;;;9.38;;
58472;SDS011;44775;51.564;5.460;2024-02-26T10:03:21;12.10;;;8.80;;
58472;SDS011;44775;51.564;5.460;2024-02-26T10:05:51;5.72;;;3.85;;
58472;SDS011;44775;51.564;5.460;2024-02-26T10:08:18;12.55;;;8.93;;
58472;SDS011;44775;51.564;5.460;2024-02-26T10:10:47;10.05;;;6.82;;
58472;SDS011;44775;51.564;5.460;2024-02-26T10:13:12;4.45;;;2.33;;
58472;SDS011;44775;51.564;5.460;2024-02-26T10:15:37;6.47;;;3.25;;
58472;SDS011;44775;51.564;5.460;2024-02-26T10:18:06;6.68;;;3.33;;
58472;SDS011;44775;51.564;5.460;2024-02-26T10:20:31;5.60;;;3.72;;
58472;SDS011;44775;51.564;5.460;2024-02-26T10:22:57;6.93;;;3.50;;
58472;SDS011;44775;51.564;5.460;2024-02-26T10:25:23;6.57;;;3.47;;
58472;SDS011;44775;51.564;5.460;2024-02-26T10:27:48;7.78;;;4.50;;
58472;SDS011;44775;51.564;5.460;2024-02-26T10:30:17;7.30;;;4.53;;
58472;SDS011;44775;51.564;5.460;2024-02-26T10:32:46;6.75;;;5.25;;
58472;SDS011;44775;51.564;5.460;2024-02-26T10:35:13;3.38;;;3.03;;
58472;SDS011;44775;51.564;5.460;2024-02-26T10:37:40;5.75;;;3.78;;
58472;SDS011;44775;51.564;5.460;2024-02-26T10:40:06;4.97;;;2.88;;
58472;SDS011;44775;51.564;5.460;2024-02-26T10:42:35;4.72;;;3.67;;
58472;SDS011;44775;51.564;5.460;2024-02-26T10:45:00;7.10;;;4.85;;
58472;SDS011;44775;51.564;5.460;2024-02-26T10:47:27;4.72;;;3.70;;
58472;SDS011;44775;51.564;5.460;2024-02-26T10:49:53;5.28;;;3.10;;
58472;SDS011;44775;51.564;5.460;2024-02-26T10:52:18;3.95;;;2.95;;
58472;SDS011;44775;51.564;5.460;2024-02-26T10:54:44;6.43;;;3.60;;
58472;SDS011;44775;51.564;5.460;2024-02-26T10:57:12;4.15;;;2.88;;
58472;SDS011;44775;51.564;5.460;2024-02-26T10:59:38;6.90;;;5.20;;
58472;SDS011;44775;51.564;5.460;2024-02-26T11:02:05;5.75;;;4.90;;
58472;SDS011;44775;51.564;5.460;2024-02-26T11:04:34;4.70;;;3.38;;
58472;SDS011;44775;51.564;5.460;2024-02-26T11:07:00;2.90;;;2.60;;
58472;SDS011;44775;51.564;5.460;2024-02-26T11:09:26;4.93;;;2.88;;
58472;SDS011;44775;51.564;5.460;2024-02-26T11:11:52;9.85;;;6.60;;
58472;SDS011;44775;51.564;5.460;2024-02-26T11:14:19;3.28;;;2.40;;
58472;SDS011;44775;51.564;5.460;2024-02-26T11:16:45;4.07;;;3.00;;
58472;SDS011;44775;51.564;5.460;2024-02-26T11:19:12;3.83;;;3.05;;
58472;SDS011;44775;51.564;5.460;2024-02-26T11:21:38;5.07;;;3.83;;
58472;SDS011;44775;51.564;5.460;2024-02-26T11:24:07;4.75;;;2.80;;
58472;SDS011;44775;51.564;5.460;2024-02-26T11:26:34;6.00;;;4.43;;
58472;SDS011;44775;51.564;5.460;2024-02-26T11:29:04;4.88;;;3.53;;
58472;SDS011;44775;51.564;5.460;2024-02-26T11:31:32;4.97;;;3.47;;
58472;SDS011;44775;51.564;5.460;2024-02-26T11:33:58;3.95;;;2.40;;
58472;SDS011;44775;51.564;5.460;2024-02-26T11:36:23;3.22;;;2.80;;
58472;SDS011;44775;51.564;5.460;2024-02-26T11:38:49;5.50;;;3.75;;
58472;SDS011;44775;51.564;5.460;2024-02-26T11:41:17;3.35;;;2.70;;
58472;SDS011;44775;51.564;5.460;2024-02-26T11:43:49;4.60;;;3.17;;
58472;SDS011;44775;51.564;5.460;2024-02-26T11:46:28;4.10;;;2.88;;
58472;SDS011;44775;51.564;5.460;2024-02-26T11:49:02;3.33;;;2.78;;
58472;SDS011;44775;51.564;5.460;2024-02-26T11:51:34;2.92;;;2.63;;
58472;SDS011;44775;51.564;5.460;2024-02-26T11:54:00;3.95;;;2.83;;
58472;SDS011;44775;51.564;5.460;2024-02-26T11:56:25;3.88;;;2.92;;
58472;SDS011;44775;51.564;5.460;2024-02-26T11:59:04;3.58;;;2.80;;
58472;SDS011;44775;51.564;5.460;2024-02-26T12:01:44;4.90;;;3.58;;
58472;SDS011;44775;51.564;5.460;2024-02-26T12:06:41;3.65;;;2.90;;
58472;SDS011;44775;51.564;5.460;2024-02-26T12:09:07;5.30;;;4.05;;
58472;SDS011;44775;51.564;5.460;2024-02-26T12:11:36;3.15;;;2.75;;
58472;SDS011;44775;51.564;5.460;2024-02-26T12:14:03;11.45;;;7.85;;
58472;SDS011;44775;51.564;5.460;2024-02-26T12:19:06;6.43;;;5.05;;
58472;SDS011;44775;51.564;5.460;2024-02-26T12:21:33;6.07;;;4.53;;
58472;SDS011;44775;51.564;5.460;2024-02-26T12:24:34;5.03;;;3.88;;
58472;SDS011;44775;51.564;5.460;2024-02-26T12:26:52;3.08;;;2.78;;
58472;SDS011;44775;51.564;5.460;2024-02-26T12:29:17;6.20;;;4.05;;
58472;SDS011;44775;51.564;5.460;2024-02-26T12:31:43;3.17;;;2.70;;
58472;SDS011;44775;51.564;5.460;2024-02-26T12:34:08;3.03;;;2.70;;
58472;SDS011;44775;51.564;5.460;2024-02-26T12:36:37;3.20;;;2.40;;
58472;SDS011;44775;51.564;5.460;2024-02-26T12:39:03;5.45;;;3.60;;
58472;SDS011;44775;51.564;5.460;2024-02-26T12:41:31;3.65;;;2.67;;
58472;SDS011;44775;51.564;5.460;2024-02-26T12:43:57;3.53;;;2.83;;
58472;SDS011;44775;51.564;5.460;2024-02-26T12:46:23;4.72;;;3.83;;
58472;SDS011;44775;51.564;5.460;2024-02-26T12:48:48;3.40;;;2.60;;
58472;SDS011;44775;51.564;5.460;2024-02-26T12:51:14;3.55;;;2.50;;
58472;SDS011;44775;51.564;5.460;2024-02-26T12:53:40;3.15;;;2.47;;
58472;SDS011;44775;51.564;5.460;2024-02-26T12:56:09;4.53;;;3.47;;
58472;SDS011;44775;51.564;5.460;2024-02-26T12:58:36;4.68;;;3.17;;
58472;SDS011;44775;51.564;5.460;2024-02-26T13:01:03;3.38;;;2.55;;
58472;SDS011;44775;51.564;5.460;2024-02-26T13:03:29;3.22;;;2.50;;
58472;SDS011;44775;51.564;5.460;2024-02-26T13:05:55;6.30;;;4.40;;
58472;SDS011;44775;51.564;5.460;2024-02-26T13:08:21;4.43;;;3.50;;
58472;SDS011;44775;51.564;5.460;2024-02-26T13:10:46;3.78;;;2.33;;
58472;SDS011;44775;51.564;5.460;2024-02-26T13:13:14;2.75;;;2.20;;
58472;SDS011;44775;51.564;5.460;2024-02-26T13:15:41;2.55;;;2.35;;
58472;SDS011;44775;51.564;5.460;2024-02-26T13:18:09;2.75;;;2.28;;
58472;SDS011;44775;51.564;5.460;2024-02-26T13:20:36;2.70;;;2.30;;
58472;SDS011;44775;51.564;5.460;2024-02-26T13:23:05;3.15;;;2.22;;
58472;SDS011;44775;51.564;5.460;2024-02-26T13:25:32;3.42;;;2.40;;
58472;SDS011;44775;51.564;5.460;2024-02-26T13:30:56;2.47;;;1.95;;
58472;SDS011;44775;51.564;5.460;2024-02-26T13:33:23;2.55;;;2.00;;
58472;SDS011;44775;51.564;5.460;2024-02-26T13:35:49;3.55;;;2.00;;
58472;SDS011;44775;51.564;5.460;2024-02-26T13:38:15;2.38;;;1.83;;
58472;SDS011;44775;51.564;5.460;2024-02-26T13:40:40;2.30;;;1.88;;
58472;SDS011;44775;51.564;5.460;2024-02-26T13:43:05;2.95;;;1.90;;
58472;SDS011;44775;51.564;5.460;2024-02-26T13:45:34;2.88;;;2.15;;
58472;SDS011;44775;51.564;5.460;2024-02-26T13:48:03;2.78;;;1.90;;
58472;SDS011;44775;51.564;5.460;2024-02-26T13:50:32;2.72;;;2.03;;
58472;SDS011;44775;51.564;5.460;2024-02-26T13:52:58;4.78;;;2.53;;
58472;SDS011;44775;51.564;5.460;2024-02-26T13:55:26;3.08;;;2.50;;
58472;SDS011;44775;51.564;5.460;2024-02-26T13:57:53;1.83;;;1.73;;
58472;SDS011;44775;51.564;5.460;2024-02-26T14:00:19;3.85;;;2.53;;
58472;SDS011;44775;51.564;5.460;2024-02-26T14:02:45;2.30;;;1.92;;
58472;SDS011;44775;51.564;5.460;2024-02-26T14:05:10;2.47;;;1.90;;
58472;SDS011;44775;51.564;5.460;2024-02-26T14:07:36;2.42;;;1.60;;
58472;SDS011;44775;51.564;5.460;2024-02-26T14:10:01;2.22;;;1.73;;
58472;SDS011;44775;51.564;5.460;2024-02-26T14:12:26;2.03;;;1.83;;
58472;SDS011;44775;51.564;5.460;2024-02-26T14:14:52;1.80;;;1.70;;
58472;SDS011;44775;51.564;5.460;2024-02-26T14:17:19;1.70;;;1.58;;
58472;SDS011;44775;51.564;5.460;2024-02-26T14:19:44;2.25;;;1.80;;
58472;SDS011;44775;51.564;5.460;2024-02-26T14:22:13;2.22;;;1.80;;
58472;SDS011;44775;51.564;5.460;2024-02-26T14:24:39;2.25;;;1.70;;
58472;SDS011;44775;51.564;5.460;2024-02-26T14:27:05;2.53;;;1.80;;
58472;SDS011;44775;51.564;5.460;2024-02-26T14:29:33;1.95;;;1.60;;
58472;SDS011;44775;51.564;5.460;2024-02-26T14:31:58;2.33;;;1.73;;
58472;SDS011;44775;51.564;5.460;2024-02-26T14:34:23;3.08;;;2.78;;
58472;SDS011;44775;51.564;5.460;2024-02-26T14:36:49;2.70;;;2.20;;
58472;SDS011;44775;51.564;5.460;2024-02-26T14:39:14;1.60;;;1.50;;
58472;SDS011;44775;51.564;5.460;2024-02-26T14:41:39;2.53;;;1.90;;
58472;SDS011;44775;51.564;5.460;2024-02-26T14:44:05;2.00;;;1.77;;
58472;SDS011;44775;51.564;5.460;2024-02-26T14:46:30;2.30;;;1.90;;
58472;SDS011;44775;51.564;5.460;2024-02-26T14:48:55;2.95;;;2.00;;